Time;durP1;ratioP1;P1;durP2;ratioP2;P2;SDS_P1;SDS_P2;PMS_P1;PMS_P2;Temp;Humidity;BMP_temperature;BMP_pressure;BME280_temperature;BME280_humidity;BME280_pressure;Samples;Min_cycle;Max_cycle;Signal;HPM_P1;HPM_P2
2022/12/16 00:01:42;;;;;;;;;;;-7.60;99.90;;;;;;5073211;28;19909;-63
2022/12/16 00:04:07;;;;;;;;;;;-7.60;99.90;;;;;;5073090;28;19920;-63
2022/12/16 00:06:33;;;;;;;;;;;-7.60;99.90;;;;;;5073152;28;19995;-63
2022/12/16 00:09:00;;;;;;;;;;;-7.70;99.90;;;;;;5073166;28;20274;-63
2022/12/16 00:11:25;;;;;;;;;;;-7.70;99.90;;;;;;5077065;28;20342;-62
2022/12/16 00:13:51;;;;;;;;;;;-7.70;99.90;;;;;;5077087;28;19936;-62
2022/12/16 00:16:18;;;;;;;;;;;-7.70;99.90;;;;;;5077055;28;19909;-62
2022/12/16 00:18:45;;;;;;;;;;;-7.70;99.90;;;;;;5076739;28;19908;-62
2022/12/16 00:21:11;;;;;;;;;;;-7.70;99.90;;;;;;5076960;28;19950;-63
2022/12/16 00:23:38;;;;;;;;;;;-7.70;99.90;;;;;;5076391;28;20362;-63
2022/12/16 00:26:04;;;;;;;;;;;-7.80;99.90;;;;;;5076844;28;20011;-63
2022/12/16 00:28:29;;;;;;;;;;;-7.70;99.90;;;;;;5076840;28;19974;-63
2022/12/16 00:30:55;;;;;;;;;;;-7.70;99.90;;;;;;5076785;28;19908;-62
2022/12/16 00:33:22;;;;;;;;;;;-7.80;99.90;;;;;;5076450;28;20286;-62
2022/12/16 00:35:48;;;;;;;;;;;-7.80;99.90;;;;;;5076398;28;19912;-62
2022/12/16 00:38:14;;;;;;;;;;;-7.80;99.90;;;;;;5058451;28;19994;-62
2022/12/16 00:40:39;;;;;;;;;;;-7.80;99.90;;;;;;5076339;28;19908;-63
2022/12/16 00:43:05;;;;;;;;;;;-7.80;99.90;;;;;;5076197;28;19913;-62
2022/12/16 00:45:30;;;;;;;;;;;-7.80;99.90;;;;;;5076230;28;19913;-62
2022/12/16 00:47:56;;;;;;;;;;;-7.70;99.90;;;;;;5076487;28;19954;-62
2022/12/16 00:50:21;;;;;;;;;;;-7.50;99.90;;;;;;5076148;28;19930;-63
2022/12/16 00:52:47;;;;;;;;;;;-7.40;99.90;;;;;;5076414;28;19908;-63
2022/12/16 00:55:13;;;;;;;;;;;-7.40;99.90;;;;;;5058480;28;19908;-63
2022/12/16 00:57:39;;;;;;;;;;;-7.40;99.90;;;;;;5076290;28;20007;-63
2022/12/16 01:00:05;;;;;;;;;;;-7.40;99.90;;;;;;5076294;28;19974;-63
2022/12/16 01:02:31;;;;;;;;;;;-7.40;99.90;;;;;;5075858;28;19908;-63
2022/12/16 01:04:56;;;;;;;;;;;-7.40;99.90;;;;;;5076170;28;20004;-63
2022/12/16 01:07:22;;;;;;;;;;;-7.50;99.90;;;;;;5075859;28;19999;-63
2022/12/16 01:09:47;;;;;;;;;;;-7.50;99.90;;;;;;5075855;28;19919;-62
2022/12/16 01:12:13;;;;;;;;;;;-7.60;99.90;;;;;;5075837;28;19913;-62
2022/12/16 01:14:38;;;;;;;;;;;-7.60;99.90;;;;;;5076003;28;19939;-62
2022/12/16 01:17:04;;;;;;;;;;;-7.70;99.90;;;;;;5057879;28;19938;-63
2022/12/16 01:19:29;;;;;;;;;;;-7.70;99.90;;;;;;5075652;28;20388;-62
2022/12/16 01:21:54;;;;;;;;;;;-7.70;99.90;;;;;;5075502;28;19958;-62
2022/12/16 01:24:20;;;;;;;;;;;-7.70;99.90;;;;;;5075324;28;20011;-64
2022/12/16 01:26:45;;;;;;;;;;;-7.70;99.90;;;;;;5075573;28;20487;-64
2022/12/16 01:29:11;;;;;;;;;;;-7.70;99.90;;;;;;5075458;28;19935;-63
2022/12/16 01:31:37;;;;;;;;;;;-7.60;99.90;;;;;;5075515;28;19908;-65
2022/12/16 01:34:02;;;;;;;;;;;-7.60;99.90;;;;;;5075659;28;20282;-65
2022/12/16 01:36:28;;;;;;;;;;;-7.60;99.90;;;;;;5057568;28;19937;-64
2022/12/16 01:38:53;;;;;;;;;;;-7.50;99.90;;;;;;5075301;28;19909;-65
2022/12/16 01:41:19;;;;;;;;;;;-7.40;99.90;;;;;;5075483;28;19908;-65
2022/12/16 01:43:45;;;;;;;;;;;-7.40;99.90;;;;;;5075310;28;19919;-64
2022/12/16 01:48:57;;;;;;;;;;;-7.30;99.90;;;;;;5107922;27;1873486;-61
2022/12/16 01:51:27;;;;;;;;;;;-7.40;99.90;;;;;;5155190;27;19962;-62
2022/12/16 01:53:55;;;;;;;;;;;-7.50;99.90;;;;;;5173761;27;19911;-62
2022/12/16 01:56:22;;;;;;;;;;;-7.50;99.90;;;;;;5173512;27;19911;-62
2022/12/16 01:58:48;;;;;;;;;;;-7.60;99.90;;;;;;5173715;27;19913;-62
2022/12/16 02:01:14;;;;;;;;;;;-7.60;99.90;;;;;;5173660;27;20312;-63
2022/12/16 02:03:40;;;;;;;;;;;-7.70;99.90;;;;;;5173690;27;19907;-62
2022/12/16 02:06:06;;;;;;;;;;;-7.70;99.90;;;;;;5173565;27;19907;-62
2022/12/16 02:08:31;;;;;;;;;;;-7.70;99.90;;;;;;5173449;27;19911;-62
2022/12/16 02:11:05;;;;;;;;;;;-7.70;99.90;;;;;;5154846;27;19907;-62
2022/12/16 02:13:39;;;;;;;;;;;-7.70;99.90;;;;;;5173215;27;19911;-63
2022/12/16 02:16:15;;;;;;;;;;;-7.70;99.90;;;;;;5173094;27;19907;-63
2022/12/16 02:18:46;;;;;;;;;;;-7.70;99.90;;;;;;5173048;27;19915;-63
2022/12/16 02:21:32;;;;;;;;;;;-7.70;99.90;;;;;;5173265;27;19914;-62
2022/12/16 02:24:17;;;;;;;;;;;-7.80;99.90;;;;;;5172817;27;19914;-62
2022/12/16 02:27:03;;;;;;;;;;;-7.80;99.90;;;;;;5172668;27;19960;-62
2022/12/16 02:29:43;;;;;;;;;;;-7.90;99.90;;;;;;5172808;27;19907;-64
2022/12/16 02:32:19;;;;;;;;;;;-7.90;99.90;;;;;;5154096;27;19907;-64
2022/12/16 02:34:52;;;;;;;;;;;-8.00;99.90;;;;;;5172719;27;20356;-62
2022/12/16 02:37:38;;;;;;;;;;;-8.00;99.90;;;;;;5172982;27;19994;-62
2022/12/16 02:40:07;;;;;;;;;;;-8.00;99.90;;;;;;5172539;27;19914;-63
2022/12/16 02:42:34;;;;;;;;;;;-8.10;99.90;;;;;;5154116;27;19914;-62
2022/12/16 02:45:04;;;;;;;;;;;-8.20;99.90;;;;;;5154309;27;19907;-62
2022/12/16 02:47:30;;;;;;;;;;;-8.20;99.90;;;;;;5172266;27;20371;-62
2022/12/16 02:49:56;;;;;;;;;;;-8.20;99.90;;;;;;5172734;27;19907;-62
2022/12/16 02:52:23;;;;;;;;;;;-8.20;99.90;;;;;;5172637;27;20435;-62
2022/12/16 02:54:51;;;;;;;;;;;-8.20;99.90;;;;;;5172421;27;19907;-65
2022/12/16 02:57:32;;;;;;;;;;;-8.20;99.90;;;;;;5172361;27;19943;-64
2022/12/16 03:00:01;;;;;;;;;;;-8.10;99.90;;;;;;5159639;27;19907;-64
2022/12/16 03:02:35;;;;;;;;;;;-8.20;99.90;;;;;;5139914;27;19914;-64
2022/12/16 03:05:05;;;;;;;;;;;-8.20;99.90;;;;;;5139999;27;19911;-62
2022/12/16 03:07:32;;;;;;;;;;;-8.20;99.90;;;;;;5139783;27;19915;-62
2022/12/16 03:09:58;;;;;;;;;;;-8.30;99.90;;;;;;5158475;27;20041;-62
2022/12/16 03:12:24;;;;;;;;;;;-8.30;99.90;;;;;;5158147;27;19914;-62
2022/12/16 03:14:52;;;;;;;;;;;-8.30;99.90;;;;;;5158094;27;19911;-62
2022/12/16 03:17:18;;;;;;;;;;;-8.30;99.90;;;;;;5158033;27;19954;-62
2022/12/16 03:19:47;;;;;;;;;;;-8.40;99.90;;;;;;5158230;27;20360;-62
2022/12/16 03:22:16;;;;;;;;;;;-8.40;99.90;;;;;;5157992;27;19912;-62
2022/12/16 03:24:42;;;;;;;;;;;-8.40;99.90;;;;;;5157934;27;19911;-62
2022/12/16 03:27:12;;;;;;;;;;;-8.40;99.90;;;;;;5157861;27;19911;-63
2022/12/16 03:29:42;;;;;;;;;;;-8.40;99.90;;;;;;5158066;27;19950;-63
2022/12/16 03:32:12;;;;;;;;;;;-8.50;99.90;;;;;;5157786;27;20009;-63
2022/12/16 03:34:41;;;;;;;;;;;-8.50;99.90;;;;;;5157728;27;20346;-63
2022/12/16 03:37:08;;;;;;;;;;;-8.50;99.90;;;;;;5157678;27;19907;-63
2022/12/16 03:39:36;;;;;;;;;;;-8.50;99.90;;;;;;5157623;27;20001;-63
2022/12/16 03:42:02;;;;;;;;;;;-8.50;99.90;;;;;;5157575;27;19907;-62
2022/12/16 03:44:27;;;;;;;;;;;-8.60;99.90;;;;;;5157510;27;19907;-63
2022/12/16 03:46:53;;;;;;;;;;;-8.60;99.90;;;;;;5157394;27;19911;-63
2022/12/16 03:49:19;;;;;;;;;;;-8.60;99.90;;;;;;5157439;27;19911;-63
2022/12/16 03:51:45;;;;;;;;;;;-8.60;99.90;;;;;;5157381;27;19955;-63
2022/12/16 03:54:10;;;;;;;;;;;-8.60;99.90;;;;;;5157402;27;20009;-63
2022/12/16 03:56:36;;;;;;;;;;;-8.70;99.90;;;;;;5157346;27;19907;-64
2022/12/16 03:59:01;;;;;;;;;;;-8.70;99.90;;;;;;5157294;27;19993;-65
2022/12/16 04:01:27;;;;;;;;;;;-8.70;99.90;;;;;;5157179;27;19930;-62
2022/12/16 04:03:52;;;;;;;;;;;-8.70;99.90;;;;;;5157019;27;20007;-62
2022/12/16 04:06:18;;;;;;;;;;;-8.70;99.90;;;;;;5157325;27;19912;-63
2022/12/16 04:08:45;;;;;;;;;;;-8.70;99.90;;;;;;5157227;27;19917;-63
2022/12/16 04:25:06;;;;;;;;;;;-8.80;99.90;;;;;;5156461;27;19907;-62
2022/12/16 04:27:32;;;;;;;;;;;-8.80;99.90;;;;;;5156671;27;19962;-63
2022/12/16 04:30:28;;;;;;;;;;;-8.80;99.90;;;;;;5156595;27;19997;-62
